Banner, Mississippi
Current Conditions -  °F | °C
As of 8:15 AM on Monday 22 Dec 2014 (Local Time) from KUOX Reporting Station
Haze Haze  
Wind Chill: 45°   Ceiling: 400
Heat Index: 48°   Visibility: 3mi
Dew Point: 48°   Wind: 7mph
Humidity: 100%   Direction: 150°SSE
Pressure: 29.86"   Gusts: NA
Location:  34.09°N, 89.39°W
Report Text: KUOX 221415Z AUTO 15006KT 3SM BR OVC004 09/09 A2986 RMK AO2 PWINO PNO
Loading
Personal Weather Stations






























Interactive Weather Map New forecast layout! Learn more

10-Day Weather Forecast

Advertisements
Track Severe Weather on mobile